Alva, OK

3:32 AM CST en Diciembre 18, 2014 (GMT -0600)
Alva Regional | Change Station
CLOSE
Current Station
Aeropuerto
Location: Alva,
Altura: 1473 ft
Estaciones meteorológicas cercanas

Alt 1473 ft 36.77 °N, 98.67 °W | Updated 17 minutes ago

Nublado
Nublado
32 ° F
Sensación térmica 26 ° F
N
7
Viento Variable Viento desde ENE

Hoy
Alta -- | Baja -- ° F
--% Posibilidad de precipitaciones
Ayer
Alta -- | Baja -- ° F
Precip. -- pul
7:41 AM 5:20 PM
Creciente menguante, 16% visible
Presión 30.12 pul
Visibilidad 0.5 Millas
Nubes Nublado 300 ft
Vientos helados 26 ° F
Punto de rocío 32 ° F
Humedad 100%
Precipitaciones 0.00 pul
Espesor de la nieve No disponible.
UV 0 de una escala de 12
Polen .10 de una escala de 12
Calidad del aire No disponible.
Flu Activity No disponible.
METAR KAVK 180915Z AUTO 07006KT 1/2SM -RA OVC003 00/00 A3012 RMK AO2

More Conditions Fewer Conditions

Presión 30.12 pul
Visibilidad 0.5 Millas
Nubes Nublado 300 ft
Vientos helados 26 ° F
Punto de rocío 32 ° F
Humedad 100%
Precipitaciones 0.00 pul
Espesor de la nieve No disponible.
UV 0 de una escala de 12
Polen .10 de una escala de 12
Calidad del aire No disponible.
Flu Activity No disponible.
METAR KAVK 180915Z AUTO 07006KT 1/2SM -RA OVC003 00/00 A3012 RMK AO2

More Conditions Fewer Conditions

10-Day Weather Forecast

Almanac

Astronomía

Dec. 18, 2014 Salida Puesta
Hora real
Crepúsculo civil
Crepúsculo náutico
Crepúsculo astronómico
Luna
Horas de luz
Horas de luz
Tomorrow will be .
, % of the Moon is Illuminated

Extremos de hoy

Máximos del estado Bajos del estado

Community

WunderPhotos

Upload Photos

1,778,907 ¡fotos cargadas!

WunderBlogs® & News

Nearby

Calidad del aire

  Calidad del aire Índice AQ Contaminante
Not available.

Grosos de nieve

Estación Profundido Altura

Actividad de terremotos

Ciudad Distance Mag. Tiempo y dato
Magnitud mínima muestra es 2,5.

Temperaturas de aguas costeras

Lugar Temperatura

Estaciones meteorológicas cercanas